FW1104 Weather Reports


time (UTC)temp
C
wind
direction
speed
KPH
gust
KPH
rain 1hr
cm
rain 24hr
cm
rain mn
cm
humidity
%
barometer
mb
20200229071016 12 337 8.0 8.0 0.00 0.00 0.00 40 1015.0
20200229070016 11 337 9.7 14.5 0.00 0.00 0.00 42 1015.0
20200229065016 11 337 6.4 8.0 0.00 0.00 0.00 45 1015.2
20200229064016 10 315 9.7 12.9 0.00 0.00 0.00 46 1015.1
20200229063016 11 337 6.4 9.7 0.00 0.00 0.00 45 1015.1
20200229062016 11 337 4.8 6.4 0.00 0.00 0.00 44 1015.1
20200229061016 11 337 4.8 6.4 0.00 0.00 0.00 44 1015.1
20200229060015 12 22 3.2 4.8 0.00 0.00 0.00 43 1015.0
20200229055015 12 22 4.8 6.4 0.00 0.00 0.00 43 1015.0
20200229053015 13 22 1.6 3.2 0.00 0.00 0.00 40 1015.0
20200229052015 13 22 3.2 4.8 0.00 0.00 0.00 40 1015.0
20200229051015 13 22 6.4 8.0 0.00 0.00 0.00 40 1014.9
20200229050015 12 22 4.8 6.4 0.00 0.00 0.00 41 1015.1
20200229045015 12 22 4.8 6.4 0.00 0.00 0.00 43 1015.0
20200229044016 13 22 6.4 6.4 0.00 0.00 0.00 43 1015.0
20200229043015 13 45 3.2 4.8 0.00 0.00 0.00 41 1015.0
20200229042015 13 45 6.4 8.0 0.00 0.00 0.00 41 1015.0
20200229041015 14 45 4.8 4.8 0.00 0.00 0.00 39 1014.9
20200229040015 15 90 3.2 4.8 0.00 0.00 0.00 37 1014.8
20200229035015 15 135 3.2 3.2 0.00 0.00 0.00 34 1014.7
20200229034017 16 135 1.6 3.2 0.00 0.00 0.00 32 1014.7
20200229033018 16 135 3.2 3.2 0.00 0.00 0.00 33 1014.5
20200229032017 16 135 3.2 4.8 0.00 0.00 0.00 32 1014.3
20200229031017 17 135 3.2 3.2 0.00 0.00 0.00 33 1014.0
20200229030017 17 0.0 1.6 0.00 0.00 0.00 32 1014.0
20200229025017 18 135 3.2 3.2 0.00 0.00 0.00 31 1013.9
20200229024017 18 135 1.6 3.2 0.00 0.00 0.00 28 1013.9
20200229023017 19 135 3.2 4.8 0.00 0.00 0.00 27 1013.8
20200229022017 20 157 3.2 4.8 0.00 0.00 0.00 24 1013.7
20200229021017 21 157 1.6 4.8 0.00 0.00 0.00 21 1013.7
20200229020017 22 0.0 0.0 0.00 0.00 0.00 22 1013.8
20200229015017 22 0.0 0.0 0.00 0.00 0.00 18 1013.9
20200229014017 23 0.0 0.0 0.00 0.00 0.00 18 1013.9
20200229013017 23 157 1.6 3.2 0.00 0.00 0.00 18 1013.9
20200229012017 24 157 3.2 3.2 0.00 0.00 0.00 18 1014.0
20200229011017 25 157 3.2 4.8 0.00 0.00 0.00 18 1014.1
20200229010017 25 157 1.6 3.2 0.00 0.00 0.00 16 1014.0
20200229005017 25 157 1.6 3.2 0.00 0.00 0.00 15 1014.0
20200229004017 26 157 3.2 3.2 0.00 0.00 0.00 15 1014.0
20200229003017 26 157 3.2 4.8 0.00 0.00 0.00 14 1014.1
20200229002017 26 112 3.2 4.8 0.00 0.00 0.00 12 1013.9
20200229001016 27 112 1.6 3.2 0.00 0.00 0.00 10 1013.8
20200229000017 27 112 1.6 1.6 0.00 0.00 0.00 10 1013.6
20200228235017 27 180 3.2 4.8 0.00 0.00 0.00 11 1013.8
20200228234017 27 180 1.6 3.2 0.00 0.00 0.00 10 1014.0
20200228233017 27 180 3.2 4.8 0.00 0.00 0.00 9 1014.0
20200228232017 27 202 3.2 4.8 0.00 0.00 0.00 9 1014.0
20200228231017 27 180 4.8 8.0 0.00 0.00 0.00 10 1014.2
20200228230017 27 180 9.7 12.9 0.00 0.00 0.00 9 1014.2
20200228225018 27 180 8.0 9.7 0.00 0.00 0.00 10 1014.3
20200228224016 27 202 9.7 14.5 0.00 0.00 0.00 11 1014.4
20200228223017 27 225 11.3 14.5 0.00 0.00 0.00 10 1014.5
20200228222017 27 225 9.7 11.3 0.00 0.00 0.00 11 1014.4
20200228221016 27 202 4.8 8.0 0.00 0.00 0.00 10 1014.2
20200228220016 27 180 11.3 14.5 0.00 0.00 0.00 10 1014.3
20200228215017 27 157 8.0 9.7 0.00 0.00 0.00 10 1014.1
20200228214017 27 202 9.7 11.3 0.00 0.00 0.00 10 1014.1
20200228213016 27 0.0 1.6 0.00 0.00 0.00 10 1013.8
20200228212016 27 112 4.8 8.0 0.00 0.00 0.00 9 1013.7
20200228211016 27 225 8.0 11.3 0.00 0.00 0.00 9 1013.8
20200228210016 27 0 3.2 4.8 0.00 0.00 0.00 8 1013.9
20200228205016 27 112 4.8 6.4 0.00 0.00 0.00 9 1014.1
20200228204016 27 112 6.4 11.3 0.00 0.00 0.00 9 1014.1
20200228203018 27 337 3.2 4.8 0.00 0.00 0.00 10 1014.3
20200228202016 27 225 6.4 11.3 0.00 0.00 0.00 11 1014.6
20200228201016 27 180 6.4 8.0 0.00 0.00 0.00 12 1014.8
20200228200016 27 180 9.7 12.9 0.00 0.00 0.00 11 1015.0
20200228195016 27 225 8.0 11.3 0.00 0.00 0.00 10 1015.2
20200228194016 27 180 3.2 4.8 0.00 0.00 0.00 10 1015.3
20200228193016 26 202 8.0 12.9 0.00 0.00 0.00 12 1015.4
20200228192016 26 180 8.0 9.7 0.00 0.00 0.00 12 1015.6
20200228191017 26 180 11.3 16.1 0.00 0.00 0.00 12 1015.8
20200228190016 26 180 12.9 16.1 0.00 0.00 0.00 12 1015.8
20200228185016 26 135 6.4 12.9 0.00 0.00 0.00 13 1016.0
20200228184016 26 157 11.3 12.9 0.00 0.00 0.00 13 1016.1
20200228183016 26 180 6.4 11.3 0.00 0.00 0.00 13 1016.4
20200228182016 26 202 6.4 11.3 0.00 0.00 0.00 14 1016.4
20200228181016 25 180 3.2 4.8 0.00 0.00 0.00 14 1016.5
20200228180017 23 225 1.6 3.2 0.00 0.00 0.00 16 1016.6
20200228175017 22 315 1.6 3.2 0.00 0.00 0.00 18 1016.6
20200228174016 21 315 1.6 3.2 0.00 0.00 0.00 22 1016.5
20200228173016 20 337 6.4 6.4 0.00 0.00 0.00 24 1016.6
20200228172016 20 337 6.4 8.0 0.00 0.00 0.00 24 1016.5
20200228171016 18 0 4.8 6.4 0.00 0.00 0.00 27 1016.5
20200228170016 18 0 6.4 6.4 0.00 0.00 0.00 28 1016.6
20200228165016 17 22 4.8 6.4 0.00 0.00 0.00 29 1016.6
20200228164016 17 22 11.3 14.5 0.00 0.00 0.00 30 1016.5
20200228163016 16 22 4.8 6.4 0.00 0.00 0.00 30 1016.7
20200228162015 16 337 4.8 6.4 0.00 0.00 0.00 31 1016.8
20200228161018 16 337 6.4 8.0 0.00 0.00 0.00 30 1016.7
20200228160015 15 337 8.0 9.7 0.00 0.00 0.00 31 1016.6
20200228155016 15 315 6.4 8.0 0.00 0.00 0.00 32 1016.3
20200228154016 14 337 6.4 9.7 0.00 0.00 0.00 32 1016.1
20200228153015 14 337 9.7 12.9 0.00 0.00 0.00 32 1015.8
20200228152015 13 337 8.0 9.7 0.00 0.00 0.00 34 1015.7
20200228151016 12 337 6.4 9.7 0.00 0.00 0.00 36 1015.6
20200228150016 12 337 8.0 12.9 0.00 0.00 0.00 38 1015.6
20200228145015 11 337 6.4 8.0 0.00 0.00 0.00 40 1015.6
20200228144016 11 337 3.2 4.8 0.00 0.00 0.00 40 1015.5
20200228143015 11 337 6.4 8.0 0.00 0.00 0.00 40 1015.3
20200228142015 11 0 6.4 8.0 0.00 0.00 0.00 39 1015.3
20200228141016 11 337 8.0 9.7 0.00 0.00 0.00 38 1015.3
20200228140015 11 337 6.4 9.7 0.00 0.00 0.00 36 1015.1
20200228135015 12 315 6.4 9.7 0.00 0.00 0.00 34 1015.1
20200228134015 12 337 6.4 8.0 0.00 0.00 0.00 35 1014.7
20200228133015 11 0 6.4 8.0 0.00 0.00 0.00 35 1014.7
20200228132015 11 0 6.4 8.0 0.00 0.00 0.00 36 1014.7
20200228131017 11 0 6.4 8.0 0.00 0.00 0.00 37 1014.9
20200228130015 11 0 6.4 8.0 0.00 0.00 0.00 37 1014.9
20200228125017 11 0 4.8 6.4 0.00 0.00 0.00 38 1014.9
20200228124017 12 0 8.0 9.7 0.00 0.00 0.00 35 1014.9
20200228123017 12 0 6.4 8.0 0.00 0.00 0.00 34 1014.9
20200228122018 12 0 6.4 8.0 0.00 0.00 0.00 33 1014.8
20200228121017 11 0 6.4 8.0 0.00 0.00 0.00 36 1014.6
20200228120017 11 0 4.8 6.4 0.00 0.00 0.00 36 1014.5
20200228115017 11 22 3.2 4.8 0.00 0.00 0.00 37 1014.4
20200228114017 11 22 4.8 4.8 0.00 0.00 0.00 35 1014.3
20200228113017 12 0 4.8 6.4 0.00 0.00 0.00 34 1014.4
20200228112017 12 0 8.0 9.7 0.00 0.00 0.00 34 1014.3
20200228111017 12 0 8.0 9.7 0.00 0.00 0.00 35 1014.2
20200228110017 11 0 6.4 9.7 0.00 0.00 0.00 35 1014.2
20200228105017 12 0 6.4 8.0 0.00 0.00 0.00 34 1014.2
20200228104017 12 0 8.0 12.9 0.00 0.00 0.00 33 1014.1
20200228103018 12 0 8.0 9.7 0.00 0.00 0.00 32 1014.2
20200228102016 12 0 6.4 9.7 0.00 0.00 0.00 32 1014.1
20200228101018 12 0 8.0 9.7 0.00 0.00 0.00 32 1014.1
20200228100016 12 0 8.0 11.3 0.00 0.00 0.00 32 1014.1
20200228095016 12 0 9.7 14.5 0.00 0.00 0.00 31 1013.9
20200228094016 12 0 8.0 9.7 0.00 0.00 0.00 31 1014.2
20200228093016 11 337 6.4 8.0 0.00 0.00 0.00 32 1014.2
20200228092016 11 0 3.2 6.4 0.00 0.00 0.00 32 1014.3
20200228091016 12 0 4.8 6.4 0.00 0.00 0.00 31 1014.3
20200228090016 12 0 8.0 11.3 0.00 0.00 0.00 31 1014.1
20200228085017 12 0 9.7 12.9 0.00 0.00 0.00 29 1014.4
20200228084017 12 0 8.0 9.7 0.00 0.00 0.00 30 1014.5
20200228083016 12 0 11.3 14.5 0.00 0.00 0.00 30 1014.5
20200228082016 13 0 9.7 14.5 0.00 0.00 0.00 30 1014.7
20200228081016 13 0 9.7 12.9 0.00 0.00 0.00 31 1014.9
20200228080017 13 0 9.7 12.9 0.00 0.00 0.00 31 1015.0
20200228075016 13 0 8.0 9.7 0.00 0.00 0.00 31 1014.9
20200228074016 13 0 11.3 14.5 0.00 0.00 0.00 30 1014.9
20200228073017 13 0 9.7 14.5 0.00 0.00 0.00 29 1015.0
20200228072016 14 0 8.0 12.9 0.00 0.00 0.00 28 1015.1